createdAt,value
2019-05-06T00:02:01.980Z,100418.33
2019-05-06T00:04:34.096Z,100416.72
2019-05-06T00:07:05.027Z,100418.92
2019-05-06T00:09:35.507Z,100418.61
2019-05-06T00:12:06.519Z,100418.77
2019-05-06T00:14:37.223Z,100418.59
2019-05-06T00:17:07.681Z,100414.55
2019-05-06T00:19:38.047Z,100422.55
2019-05-06T00:22:09.717Z,100416.87
2019-05-06T00:24:46.791Z,100421.69
2019-05-06T00:27:24.687Z,100415.10
2019-05-06T00:29:55.147Z,100423.69
2019-05-06T00:32:25.781Z,100419.41
2019-05-06T00:34:56.775Z,100420.80
2019-05-06T00:37:29.181Z,100421.96
2019-05-06T00:40:11.567Z,100423.44
2019-05-06T00:43:00.856Z,100421.53
2019-05-06T00:45:33.993Z,100416.22
2019-05-06T00:48:06.304Z,100421.14
2019-05-06T00:50:36.589Z,100412.35
2019-05-06T00:53:08.907Z,100415.66
2019-05-06T00:55:39.302Z,100414.55
2019-05-06T00:58:09.673Z,100413.66
2019-05-06T01:00:40.050Z,100417.70
2019-05-06T01:03:10.290Z,100423.33
2019-05-06T01:05:40.571Z,100429.36
2019-05-06T01:08:10.895Z,100426.39
2019-05-06T01:10:41.280Z,100424.03
2019-05-06T01:13:29.979Z,100431.59
2019-05-06T01:16:00.283Z,100430.89
2019-05-06T01:18:30.576Z,100432.69
2019-05-06T01:21:10.325Z,100436.91
2019-05-06T01:23:44.103Z,100440.87
2019-05-06T01:26:16.263Z,100441.33
2019-05-06T01:28:47.204Z,100445.82
2019-05-06T01:31:17.895Z,100448.41
2019-05-06T01:33:48.131Z,100449.84
2019-05-06T01:36:19.056Z,100447.96
2019-05-06T01:39:14.263Z,100447.45
2019-05-06T01:41:56.502Z,100443.69
2019-05-06T01:44:27.170Z,100448.89
2019-05-06T01:46:57.588Z,100447.63
2019-05-06T01:49:28.224Z,100452.36
2019-05-06T01:51:58.853Z,100453.52
2019-05-06T01:54:29.128Z,100457.28
2019-05-06T01:56:59.499Z,100457.59
2019-05-06T01:59:29.751Z,100457.94
2019-05-06T02:02:01.267Z,100464.52
2019-05-06T02:04:33.710Z,100463.84
2019-05-06T02:07:04.383Z,100463.82
2019-05-06T02:09:35.023Z,100471.13
2019-05-06T02:12:08.342Z,100467.73
2019-05-06T02:14:38.665Z,100469.09
2019-05-06T02:17:09.304Z,100473.27
2019-05-06T02:19:39.663Z,100475.88
2019-05-06T02:22:18.279Z,100472.61
2019-05-06T02:24:53.585Z,100474.47
2019-05-06T02:27:24.716Z,100483.00
2019-05-06T02:30:01.126Z,100485.39
2019-05-06T02:32:38.903Z,100485.25
2019-05-06T02:35:18.209Z,100481.62
2019-05-06T02:37:48.593Z,100482.23
2019-05-06T02:40:25.868Z,100485.52
2019-05-06T02:42:56.180Z,100481.46
2019-05-06T02:45:26.956Z,100489.02
2019-05-06T02:48:13.819Z,100481.45
2019-05-06T02:50:59.660Z,100485.66
2019-05-06T02:53:33.118Z,100484.70
2019-05-06T02:56:04.156Z,100501.60
2019-05-06T02:58:34.515Z,100496.06
2019-05-06T03:01:04.925Z,100504.23
2019-05-06T03:03:35.222Z,100495.00
2019-05-06T03:06:05.580Z,100501.36
2019-05-06T03:08:35.917Z,100501.93
2019-05-06T03:11:06.244Z,100502.31
2019-05-06T03:13:36.645Z,100501.20
2019-05-06T03:16:07.030Z,100500.34
2019-05-06T03:18:37.428Z,100504.89
2019-05-06T03:21:26.053Z,100502.72
2019-05-06T03:24:03.928Z,100506.41
2019-05-06T03:26:34.242Z,100501.76
2019-05-06T03:29:04.565Z,100506.14
2019-05-06T03:31:36.631Z,100507.73
2019-05-06T03:34:36.536Z,100507.73
2019-05-06T03:36:42.317Z,100509.62
2019-05-06T03:39:13.896Z,100513.41
2019-05-06T03:41:43.966Z,100517.81
2019-05-06T03:44:16.658Z,100521.52
2019-05-06T03:47:15.050Z,100521.27
2019-05-06T03:49:50.209Z,100528.03
2019-05-06T03:52:23.259Z,100529.03
2019-05-06T03:54:56.021Z,100528.59
2019-05-06T03:57:29.468Z,100531.39
2019-05-06T04:00:04.506Z,100533.53
2019-05-06T04:02:33.809Z,100529.91
2019-05-06T04:05:04.442Z,100538.20
2019-05-06T04:07:36.443Z,100536.10
2019-05-06T04:10:07.603Z,100540.40
2019-05-06T04:12:39.588Z,100532.97
2019-05-06T04:15:13.871Z,100541.11
2019-05-06T04:17:56.480Z,100539.19
2019-05-06T04:20:43.374Z,100537.80
2019-05-06T04:23:26.679Z,100541.13
2019-05-06T04:26:23.957Z,100541.77
2019-05-06T08:11:25.975Z,100548.50
2019-05-06T08:13:55.381Z,100550.56
2019-05-06T08:16:27.687Z,100560.93
2019-05-06T08:18:58.241Z,100555.63
2019-05-06T08:21:32.587Z,100556.49
2019-05-06T08:24:02.799Z,100558.24
2019-05-06T08:26:33.426Z,100559.56
2019-05-06T08:29:06.029Z,100559.88
2019-05-06T08:31:38.769Z,100564.04
2019-05-06T08:34:12.126Z,100556.91
2019-05-06T08:37:02.464Z,100555.75
2019-05-06T08:39:35.531Z,100549.19
2019-05-06T08:42:06.565Z,100546.67
2019-05-06T08:44:37.136Z,100539.67
2019-05-06T08:47:10.169Z,100545.84
2019-05-06T08:50:02.350Z,100545.34
2019-05-06T08:52:52.409Z,100544.44
2019-05-06T08:55:29.577Z,100548.09
2019-05-06T08:58:18.151Z,100542.47
2019-05-06T09:00:59.720Z,100548.52
2019-05-06T09:03:42.170Z,100545.67
2019-05-06T09:06:26.974Z,100542.52
2019-05-06T09:08:46.908Z,100534.81
2019-05-06T09:11:25.221Z,100539.52
2019-05-06T09:13:54.925Z,100531.09
2019-05-06T09:16:32.929Z,100531.95
2019-05-06T09:19:06.872Z,100530.83
2019-05-06T09:21:49.452Z,100528.52
2019-05-06T09:24:38.478Z,100523.92
2019-05-06T09:27:23.707Z,100519.72
2019-05-06T09:29:59.845Z,100515.72
2019-05-06T09:32:36.289Z,100515.25
2019-05-06T09:35:12.951Z,100516.53
2019-05-06T09:37:43.150Z,100519.94
2019-05-06T09:40:14.622Z,100515.16
2019-05-06T09:42:45.000Z,100511.87
2019-05-06T09:45:17.007Z,100509.44
2019-05-06T09:47:57.156Z,100518.56
2019-05-06T09:50:46.140Z,100514.38
2019-05-06T09:53:26.997Z,100515.16
2019-05-06T09:56:33.508Z,100520.20
2019-05-06T09:59:07.671Z,100514.38
2019-05-06T10:01:38.034Z,100519.10
2019-05-06T10:04:08.818Z,100522.26
2019-05-06T10:06:55.836Z,100519.47
2019-05-06T10:09:15.949Z,100517.99
2019-05-06T10:11:47.252Z,100521.30
2019-05-06T10:14:19.098Z,100522.75
2019-05-06T10:16:53.021Z,100522.76
2019-05-06T10:19:24.790Z,100526.31
2019-05-06T10:21:58.948Z,100526.78
2019-05-06T10:24:32.871Z,100528.16
2019-05-06T10:27:03.691Z,100529.42
2019-05-06T10:29:59.455Z,100529.42
2019-05-06T10:32:43.483Z,100531.34
2019-05-06T10:35:13.903Z,100532.86
2019-05-06T10:38:32.447Z,100534.60
2019-05-06T10:41:08.546Z,100534.85
2019-05-06T10:43:55.003Z,100534.89
2019-05-06T10:46:25.466Z,100524.02
2019-05-06T10:48:58.809Z,100521.65
2019-05-06T10:51:37.263Z,100525.10
2019-05-06T10:54:12.285Z,100522.30
2019-05-06T10:57:03.860Z,100522.53
2019-05-06T10:59:34.232Z,100521.38
2019-05-06T11:02:23.296Z,100514.89
2019-05-06T11:04:58.207Z,100514.58
2019-05-06T11:07:36.412Z,100513.11
2019-05-06T11:10:07.030Z,100516.95
2019-05-06T11:12:37.494Z,100510.80
2019-05-06T11:17:38.131Z,100502.84
2019-05-06T11:20:11.402Z,100505.04
2019-05-06T11:22:43.565Z,100502.25
2019-05-06T11:25:16.779Z,100499.25
2019-05-06T11:27:56.623Z,100506.41
2019-05-06T11:30:52.940Z,100497.58
2019-05-06T11:33:45.667Z,100492.49
2019-05-06T11:36:23.048Z,100487.06
2019-05-06T11:38:54.465Z,100484.67
2019-05-06T11:41:29.488Z,100484.22
2019-05-06T11:44:00.280Z,100484.14
2019-05-06T11:46:32.230Z,100478.23
2019-05-06T11:49:12.460Z,100481.26
2019-05-06T11:51:43.689Z,100482.41
2019-05-06T11:54:20.757Z,100480.31
2019-05-06T11:56:51.502Z,100476.34
2019-05-06T11:59:27.037Z,100476.68
2019-05-06T12:02:07.563Z,100470.91
2019-05-06T12:04:41.924Z,100472.76
2019-05-06T12:07:15.667Z,100471.74
2019-05-06T12:09:46.518Z,100471.41
2019-05-06T12:12:20.113Z,100472.38
2019-05-06T12:15:08.060Z,100475.94
2019-05-06T12:18:23.232Z,100472.98
2019-05-06T12:21:07.964Z,100467.53
2019-05-06T12:23:26.835Z,100470.27
2019-05-06T12:25:57.746Z,100469.33
2019-05-06T12:28:28.117Z,100469.27
2019-05-06T12:30:58.983Z,100475.70
2019-05-06T12:33:35.883Z,100478.84
2019-05-06T12:36:18.322Z,100466.81
2019-05-06T12:39:09.853Z,100465.66
2019-05-06T12:41:59.703Z,100464.68
2019-05-06T12:44:33.836Z,100470.33
2019-05-06T12:47:24.135Z,100466.64
2019-05-06T12:49:58.893Z,100471.30
2019-05-06T12:52:29.607Z,100466.63
2019-05-06T12:55:17.467Z,100468.50
2019-05-06T12:57:34.496Z,100471.25
2019-05-06T13:00:06.035Z,100466.09
2019-05-06T13:02:36.378Z,100464.14
2019-05-06T13:05:07.185Z,100461.66
2019-05-06T13:07:47.411Z,100465.54
2019-05-06T13:10:23.058Z,100472.70
2019-05-06T13:13:05.221Z,100467.78
2019-05-06T13:15:52.706Z,100474.09
2019-05-06T13:18:19.492Z,100475.83
2019-05-06T13:20:53.168Z,100468.66
2019-05-06T13:23:35.107Z,100470.55
2019-05-06T13:26:04.906Z,100473.63
2019-05-06T13:28:44.448Z,100473.39
2019-05-06T13:31:21.526Z,100468.28
2019-05-06T13:33:58.635Z,100467.85
2019-05-06T13:36:38.289Z,100467.21
2019-05-06T13:39:15.050Z,100462.42
2019-05-06T13:41:49.344Z,100459.94
2019-05-06T13:44:24.670Z,100459.67
2019-05-06T13:46:58.390Z,100461.25
2019-05-06T13:49:53.823Z,100460.52
2019-05-06T13:52:27.630Z,100456.66
2019-05-06T13:54:58.148Z,100448.85
2019-05-06T13:57:29.362Z,100454.37
2019-05-06T14:00:06.544Z,100451.22
2019-05-06T14:03:02.113Z,100447.69
2019-05-06T14:05:33.405Z,100443.09
2019-05-06T14:08:04.844Z,100438.76
2019-05-06T14:10:35.756Z,100440.25
2019-05-06T14:13:10.288Z,100439.75
2019-05-06T14:15:42.067Z,100442.16
2019-05-06T14:18:13.618Z,100436.22
2019-05-06T14:20:45.800Z,100448.95
2019-05-06T14:23:16.568Z,100442.31
2019-05-06T14:26:04.978Z,100444.38
2019-05-06T14:28:54.628Z,100447.26
2019-05-06T14:31:32.797Z,100449.22
2019-05-06T14:34:03.705Z,100444.66
2019-05-06T14:36:36.104Z,100449.20
2019-05-06T14:39:14.678Z,100445.88
2019-05-06T14:41:55.001Z,100452.70
2019-05-06T14:44:32.659Z,100450.54
2019-05-06T14:47:20.217Z,100450.89
2019-05-06T14:49:52.994Z,100451.69
2019-05-06T14:52:29.243Z,100449.28
2019-05-06T14:55:22.483Z,100450.77
2019-05-06T14:58:18.512Z,100452.38
2019-05-06T15:00:53.450Z,100452.02
2019-05-06T15:04:17.799Z,100452.73
2019-05-06T15:07:06.486Z,100456.59
2019-05-06T15:09:53.617Z,100456.31
2019-05-06T15:12:19.536Z,100452.50
2019-05-06T15:14:53.292Z,100455.11
2019-05-06T15:17:24.498Z,100455.84
2019-05-06T15:19:56.516Z,100454.53
2019-05-06T15:22:30.184Z,100452.38
2019-05-06T15:25:02.407Z,100449.64
2019-05-06T15:27:33.650Z,100455.06
2019-05-06T15:30:07.139Z,100450.50
2019-05-06T15:32:39.623Z,100446.87
2019-05-06T15:35:25.993Z,100455.39
2019-05-06T15:38:02.397Z,100448.14
2019-05-06T15:40:36.619Z,100446.39
2019-05-06T15:43:07.553Z,100455.85
2019-05-06T15:45:43.089Z,100457.05
2019-05-06T15:48:13.723Z,100453.42
2019-05-06T15:50:47.358Z,100456.52
2019-05-06T15:53:18.401Z,100458.02
2019-05-06T15:55:53.280Z,100454.98
2019-05-06T15:58:22.952Z,100461.78
2019-05-06T16:00:56.653Z,100461.28
2019-05-06T16:03:27.085Z,100456.96
2019-05-06T16:05:57.687Z,100454.58
2019-05-06T16:08:32.087Z,100457.27
2019-05-06T16:11:03.064Z,100457.48
2019-05-06T16:13:33.437Z,100450.28
2019-05-06T16:16:06.870Z,100454.19
2019-05-06T16:18:35.987Z,100445.83
2019-05-06T16:21:06.852Z,100450.52
2019-05-06T16:23:44.945Z,100446.90
2019-05-06T16:26:15.893Z,100442.14
2019-05-06T16:28:46.525Z,100450.05
2019-05-06T16:31:16.878Z,100445.02
2019-05-06T16:33:47.163Z,100449.34
2019-05-06T16:36:17.858Z,100449.52
2019-05-06T16:38:48.186Z,100440.91
2019-05-06T16:41:18.792Z,100440.66
2019-05-06T16:43:49.427Z,100437.91
2019-05-06T16:46:19.748Z,100443.70
2019-05-06T16:48:52.447Z,100444.98
2019-05-06T16:51:23.703Z,100439.84
2019-05-06T16:53:54.127Z,100437.84
2019-05-06T16:56:39.501Z,100435.25
2019-05-06T16:59:12.794Z,100438.84
2019-05-06T17:01:47.476Z,100438.39
2019-05-06T17:04:35.032Z,100436.66
2019-05-06T17:07:15.966Z,100433.16
2019-05-06T17:09:48.868Z,100433.72
2019-05-06T17:12:19.320Z,100432.44
2019-05-06T17:14:49.630Z,100432.07
2019-05-06T17:17:22.863Z,100431.51
2019-05-06T17:19:54.953Z,100433.80
2019-05-06T17:22:29.744Z,100440.28
2019-05-06T17:25:02.413Z,100439.36
2019-05-06T17:27:35.199Z,100441.05
2019-05-06T17:30:15.818Z,100435.59
2019-05-06T17:32:52.588Z,100445.50
2019-05-06T17:35:23.532Z,100449.67
2019-05-06T17:38:08.874Z,100442.13
2019-05-06T17:40:39.547Z,100437.20
2019-05-06T17:43:12.997Z,100443.27
2019-05-06T17:46:02.213Z,100436.28
2019-05-06T17:48:48.219Z,100445.94
2019-05-06T17:51:23.983Z,100445.85
2019-05-06T17:54:06.272Z,100447.14
2019-05-06T17:56:36.733Z,100443.06
2019-05-06T17:59:16.576Z,100448.88
2019-05-06T18:01:53.020Z,100450.69
2019-05-06T18:04:23.231Z,100451.17
2019-05-06T18:06:53.915Z,100449.11
2019-05-06T18:09:27.387Z,100453.91
2019-05-06T18:11:59.697Z,100457.57
2019-05-06T18:14:32.639Z,100457.22
2019-05-06T18:17:03.618Z,100464.77
2019-05-06T18:19:39.862Z,100464.13
2019-05-06T18:22:10.167Z,100465.67
2019-05-06T18:24:40.563Z,100466.52
2019-05-06T18:27:13.401Z,100459.93
2019-05-06T18:29:44.701Z,100468.61
2019-05-06T18:32:15.671Z,100466.38
2019-05-06T18:34:46.021Z,100472.13
2019-05-06T18:37:18.779Z,100468.30
2019-05-06T18:39:49.443Z,100474.96
2019-05-06T18:42:23.612Z,100486.52
2019-05-06T18:44:56.064Z,100484.64
2019-05-06T18:47:28.060Z,100484.64
2019-05-06T18:50:02.496Z,100486.48
2019-05-06T18:52:40.712Z,100493.45
2019-05-06T18:55:17.778Z,100501.00
2019-05-06T18:57:52.629Z,100501.00
2019-05-06T19:00:35.977Z,100505.42
2019-05-06T19:03:06.487Z,100509.76
2019-05-06T19:05:43.231Z,100512.03
2019-05-06T19:08:24.812Z,100511.55
2019-05-06T19:11:02.431Z,100519.67
2019-05-06T19:13:35.210Z,100523.16
2019-05-06T19:16:07.563Z,100527.58
2019-05-06T19:18:58.935Z,100525.11
2019-05-06T19:21:29.386Z,100528.55
2019-05-06T19:24:00.027Z,100532.86
2019-05-06T19:26:40.048Z,100538.66
2019-05-06T19:29:12.342Z,100538.14
2019-05-06T19:31:44.979Z,100535.86
2019-05-06T19:34:17.081Z,100542.88
2019-05-06T19:36:49.357Z,100544.66
2019-05-06T19:39:23.920Z,100542.34
2019-05-06T19:42:08.249Z,100541.78
2019-05-06T19:44:46.758Z,100542.14
2019-05-06T19:47:19.869Z,100541.70
2019-05-06T19:49:52.984Z,100541.09
2019-05-06T19:52:32.029Z,100542.77
2019-05-06T19:55:05.897Z,100547.24
2019-05-06T19:57:39.902Z,100545.25
2019-05-06T20:00:11.644Z,100553.20
2019-05-06T20:02:44.822Z,100544.82
2019-05-06T20:05:30.918Z,100547.36
2019-05-06T20:08:23.178Z,100543.41
2019-05-06T20:11:15.460Z,100544.72
2019-05-06T20:13:52.586Z,100542.60
2019-05-06T20:16:23.503Z,100541.30
2019-05-06T20:18:54.394Z,100542.29
2019-05-06T20:21:25.845Z,100540.06
2019-05-06T20:23:56.531Z,100550.27
2019-05-06T20:26:27.141Z,100545.11
2019-05-06T20:28:57.798Z,100554.38
2019-05-06T20:31:28.589Z,100557.07
2019-05-06T20:33:59.589Z,100555.44
2019-05-06T20:36:33.141Z,100549.95
2019-05-06T20:39:08.309Z,100551.56
2019-05-06T20:41:42.559Z,100556.16
2019-05-06T20:44:13.244Z,100546.04
2019-05-06T20:46:44.136Z,100540.98
2019-05-06T20:49:17.419Z,100542.30
2019-05-06T20:51:49.505Z,100539.76
2019-05-06T20:54:23.768Z,100537.97
2019-05-06T20:56:57.756Z,100541.22
2019-05-06T20:59:28.879Z,100531.84
2019-05-06T21:02:03.067Z,100527.05
2019-05-06T21:04:33.825Z,100531.47
2019-05-06T21:07:04.534Z,100529.17
2019-05-06T21:09:34.918Z,100526.98
2019-05-06T21:12:05.632Z,100524.13
2019-05-06T21:14:36.391Z,100528.13
2019-05-06T21:17:07.559Z,100525.77
2019-05-06T21:19:38.301Z,100527.50
2019-05-06T21:22:08.699Z,100525.85
2019-05-06T21:24:39.036Z,100529.30
2019-05-06T21:27:09.363Z,100523.34
2019-05-06T21:29:43.143Z,100519.12
2019-05-06T21:32:13.959Z,100528.95
2019-05-06T21:34:44.634Z,100532.73
2019-05-06T21:37:19.050Z,100529.17
2019-05-06T21:39:49.865Z,100530.34
2019-05-06T21:42:20.500Z,100529.30
2019-05-06T21:44:52.262Z,100527.20
2019-05-06T21:47:22.912Z,100525.52
2019-05-06T21:49:53.333Z,100526.06
2019-05-06T21:52:36.294Z,100528.91
2019-05-06T21:54:57.218Z,100534.28
2019-05-06T21:57:39.405Z,100528.83
2019-05-06T22:00:16.965Z,100529.34
2019-05-06T22:02:46.657Z,100525.93
2019-05-06T22:05:18.896Z,100529.53
2019-05-06T22:07:49.790Z,100530.88
2019-05-06T22:10:42.254Z,100524.23
2019-05-06T22:13:25.489Z,100527.89
2019-05-06T22:15:56.004Z,100527.89
2019-05-06T22:18:48.888Z,100528.02
2019-05-06T22:21:42.604Z,100528.80
2019-05-06T22:24:15.743Z,100522.30
2019-05-06T22:26:47.751Z,100529.34
2019-05-06T22:29:18.632Z,100528.05
2019-05-06T22:31:49.264Z,100529.18
2019-05-06T22:34:22.202Z,100514.42
2019-05-06T22:36:54.318Z,100521.70
2019-05-06T22:39:27.905Z,100516.62
2019-05-06T22:41:58.333Z,100520.09
2019-05-06T22:44:32.327Z,100519.69
2019-05-06T22:47:02.744Z,100519.18
2019-05-06T22:49:33.646Z,100517.58
2019-05-06T22:52:07.846Z,100513.38
2019-05-06T22:54:38.401Z,100511.58
2019-05-06T22:57:12.039Z,100511.36
2019-05-06T22:59:43.243Z,100507.80
2019-05-06T23:02:32.224Z,100505.11
2019-05-06T23:05:04.497Z,100509.55
2019-05-06T23:07:35.683Z,100506.27
2019-05-06T23:10:07.496Z,100502.82
2019-05-06T23:12:37.951Z,100501.21
2019-05-06T23:15:09.458Z,100494.84
2019-05-06T23:17:42.275Z,100507.20
2019-05-06T23:20:13.468Z,100497.36
2019-05-06T23:22:49.355Z,100496.92
2019-05-06T23:25:22.042Z,100498.70
2019-05-06T23:27:53.226Z,100500.91
2019-05-06T23:30:24.228Z,100502.22
2019-05-06T23:32:54.839Z,100505.94
2019-05-06T23:35:26.320Z,100502.23
2019-05-06T23:38:52.433Z,100504.59
2019-05-06T23:42:17.041Z,100499.96
2019-05-06T23:45:42.508Z,100494.47
2019-05-06T23:49:07.882Z,100492.84
2019-05-06T23:52:32.210Z,100488.44
2019-05-06T23:55:59.232Z,100489.55
2019-05-06T23:58:32.200Z,100486.77
